sensor_id;sensor_type;location;lat;lon;timestamp;pressure;altitude;pressure_sealevel;temperature
15845;BMP180;50807;52.436;13.346;2022-07-23T00:00:26;101285.00;;;24.10
15845;BMP180;50807;52.436;13.346;2022-07-23T00:00:57;101274.00;;;24.10
15845;BMP180;50807;52.436;13.346;2022-07-23T00:01:29;101283.00;;;24.10
15845;BMP180;50807;52.436;13.346;2022-07-23T00:02:00;101284.00;;;24.10
15845;BMP180;50807;52.436;13.346;2022-07-23T00:02:31;101279.00;;;24.10
15845;BMP180;50807;52.436;13.346;2022-07-23T00:03:02;101273.00;;;24.10
15845;BMP180;50807;52.436;13.346;2022-07-23T00:03:33;101274.00;;;24.10
15845;BMP180;50807;52.436;13.346;2022-07-23T00:04:04;101268.00;;;24.00
15845;BMP180;50807;52.436;13.346;2022-07-23T00:04:35;101269.00;;;24.10
15845;BMP180;50807;52.436;13.346;2022-07-23T00:05:07;101263.00;;;24.00
15845;BMP180;50807;52.436;13.346;2022-07-23T00:05:39;101269.00;;;24.10
15845;BMP180;50807;52.436;13.346;2022-07-23T00:06:11;101266.00;;;24.10
15845;BMP180;50807;52.436;13.346;2022-07-23T00:06:42;101267.00;;;24.10
15845;BMP180;50807;52.436;13.346;2022-07-23T00:07:13;101266.00;;;24.10
15845;BMP180;50807;52.436;13.346;2022-07-23T00:07:45;101272.00;;;24.00
15845;BMP180;50807;52.436;13.346;2022-07-23T00:08:15;101269.00;;;24.00
15845;BMP180;50807;52.436;13.346;2022-07-23T00:08:47;101266.00;;;24.10
15845;BMP180;50807;52.436;13.346;2022-07-23T00:09:18;101265.00;;;24.00
15845;BMP180;50807;52.436;13.346;2022-07-23T00:09:49;101267.00;;;24.00
15845;BMP180;50807;52.436;13.346;2022-07-23T00:10:21;101270.00;;;24.00
15845;BMP180;50807;52.436;13.346;2022-07-23T00:10:51;101264.00;;;24.00
15845;BMP180;50807;52.436;13.346;2022-07-23T00:11:22;101267.00;;;24.10
15845;BMP180;50807;52.436;13.346;2022-07-23T00:11:54;101261.00;;;24.00
15845;BMP180;50807;52.436;13.346;2022-07-23T00:12:25;101257.00;;;24.00
15845;BMP180;50807;52.436;13.346;2022-07-23T00:12:55;101264.00;;;24.00
15845;BMP180;50807;52.436;13.346;2022-07-23T00:13:27;101267.00;;;24.00
15845;BMP180;50807;52.436;13.346;2022-07-23T00:13:58;101265.00;;;24.00
15845;BMP180;50807;52.436;13.346;2022-07-23T00:14:29;101262.00;;;24.00
15845;BMP180;50807;52.436;13.346;2022-07-23T00:15:01;101269.00;;;24.00
15845;BMP180;50807;52.436;13.346;2022-07-23T00:15:32;101272.00;;;24.00
15845;BMP180;50807;52.436;13.346;2022-07-23T00:16:04;101266.00;;;24.00
15845;BMP180;50807;52.436;13.346;2022-07-23T00:16:36;101269.00;;;24.00
15845;BMP180;50807;52.436;13.346;2022-07-23T00:17:07;101271.00;;;24.00
15845;BMP180;50807;52.436;13.346;2022-07-23T00:17:37;101272.00;;;23.90
15845;BMP180;50807;52.436;13.346;2022-07-23T00:18:09;101271.00;;;24.00
15845;BMP180;50807;52.436;13.346;2022-07-23T00:18:40;101268.00;;;23.90
15845;BMP180;50807;52.436;13.346;2022-07-23T00:19:11;101262.00;;;24.00
15845;BMP180;50807;52.436;13.346;2022-07-23T00:19:42;101266.00;;;23.90
15845;BMP180;50807;52.436;13.346;2022-07-23T00:20:14;101264.00;;;23.90
15845;BMP180;50807;52.436;13.346;2022-07-23T00:20:46;101267.00;;;23.90
15845;BMP180;50807;52.436;13.346;2022-07-23T00:21:17;101266.00;;;23.90
15845;BMP180;50807;52.436;13.346;2022-07-23T00:21:49;101270.00;;;23.90
15845;BMP180;50807;52.436;13.346;2022-07-23T00:22:19;101267.00;;;23.90
15845;BMP180;50807;52.436;13.346;2022-07-23T00:22:53;101264.00;;;23.90
15845;BMP180;50807;52.436;13.346;2022-07-23T00:23:25;101263.00;;;23.90
15845;BMP180;50807;52.436;13.346;2022-07-23T00:23:56;101267.00;;;23.90
15845;BMP180;50807;52.436;13.346;2022-07-23T00:24:28;101267.00;;;23.90
15845;BMP180;50807;52.436;13.346;2022-07-23T00:24:59;101262.00;;;23.90
15845;BMP180;50807;52.436;13.346;2022-07-23T00:25:30;101259.00;;;23.90
15845;BMP180;50807;52.436;13.346;2022-07-23T00:26:01;101260.00;;;23.90
15845;BMP180;50807;52.436;13.346;2022-07-23T00:26:32;101256.00;;;23.90
15845;BMP180;50807;52.436;13.346;2022-07-23T00:27:03;101254.00;;;23.90
15845;BMP180;50807;52.436;13.346;2022-07-23T00:27:34;101258.00;;;23.90
15845;BMP180;50807;52.436;13.346;2022-07-23T00:28:06;101256.00;;;23.90
15845;BMP180;50807;52.436;13.346;2022-07-23T00:28:37;101261.00;;;23.90
15845;BMP180;50807;52.436;13.346;2022-07-23T00:29:07;101262.00;;;23.90
15845;BMP180;50807;52.436;13.346;2022-07-23T00:29:39;101255.00;;;23.90
15845;BMP180;50807;52.436;13.346;2022-07-23T00:30:12;101255.00;;;23.80
15845;BMP180;50807;52.436;13.346;2022-07-23T00:30:43;101259.00;;;23.80
15845;BMP180;50807;52.436;13.346;2022-07-23T00:31:14;101262.00;;;23.80
15845;BMP180;50807;52.436;13.346;2022-07-23T00:31:45;101256.00;;;23.80
15845;BMP180;50807;52.436;13.346;2022-07-23T00:32:16;101257.00;;;23.80
15845;BMP180;50807;52.436;13.346;2022-07-23T00:32:50;101260.00;;;23.80
15845;BMP180;50807;52.436;13.346;2022-07-23T00:33:21;101260.00;;;23.80
15845;BMP180;50807;52.436;13.346;2022-07-23T00:33:52;101256.00;;;23.80
15845;BMP180;50807;52.436;13.346;2022-07-23T00:34:27;101255.00;;;23.80
15845;BMP180;50807;52.436;13.346;2022-07-23T00:34:57;101255.00;;;23.90
15845;BMP180;50807;52.436;13.346;2022-07-23T00:35:37;101252.00;;;23.80
15845;BMP180;50807;52.436;13.346;2022-07-23T00:36:09;101248.00;;;23.80
15845;BMP180;50807;52.436;13.346;2022-07-23T00:36:40;101249.00;;;23.80
15845;BMP180;50807;52.436;13.346;2022-07-23T00:37:11;101247.00;;;23.90
15845;BMP180;50807;52.436;13.346;2022-07-23T00:37:42;101251.00;;;23.90
15845;BMP180;50807;52.436;13.346;2022-07-23T00:38:13;101246.00;;;23.90
15845;BMP180;50807;52.436;13.346;2022-07-23T00:38:45;101250.00;;;23.90
15845;BMP180;50807;52.436;13.346;2022-07-23T00:39:15;101250.00;;;23.90
15845;BMP180;50807;52.436;13.346;2022-07-23T00:39:46;101247.00;;;23.90
15845;BMP180;50807;52.436;13.346;2022-07-23T00:40:18;101247.00;;;23.90
15845;BMP180;50807;52.436;13.346;2022-07-23T00:40:49;101264.00;;;23.90
15845;BMP180;50807;52.436;13.346;2022-07-23T00:41:19;101254.00;;;23.90
15845;BMP180;50807;52.436;13.346;2022-07-23T00:41:51;101252.00;;;24.00
15845;BMP180;50807;52.436;13.346;2022-07-23T00:42:22;101262.00;;;23.90
15845;BMP180;50807;52.436;13.346;2022-07-23T00:42:53;101261.00;;;23.90
15845;BMP180;50807;52.436;13.346;2022-07-23T00:43:25;101260.00;;;24.00
15845;BMP180;50807;52.436;13.346;2022-07-23T00:44:13;101270.00;;;23.70
15845;BMP180;50807;52.436;13.346;2022-07-23T00:44:44;101263.00;;;23.80
15845;BMP180;50807;52.436;13.346;2022-07-23T00:45:18;101259.00;;;23.80
15845;BMP180;50807;52.436;13.346;2022-07-23T00:45:49;101259.00;;;23.90
15845;BMP180;50807;52.436;13.346;2022-07-23T00:46:20;101257.00;;;23.90
15845;BMP180;50807;52.436;13.346;2022-07-23T00:46:55;101259.00;;;23.90
15845;BMP180;50807;52.436;13.346;2022-07-23T00:47:26;101258.00;;;23.90
15845;BMP180;50807;52.436;13.346;2022-07-23T00:47:57;101257.00;;;23.90
15845;BMP180;50807;52.436;13.346;2022-07-23T00:48:28;101261.00;;;23.90
15845;BMP180;50807;52.436;13.346;2022-07-23T00:49:00;101259.00;;;23.90
15845;BMP180;50807;52.436;13.346;2022-07-23T00:49:31;101261.00;;;23.90
15845;BMP180;50807;52.436;13.346;2022-07-23T00:50:04;101250.00;;;23.90
15845;BMP180;50807;52.436;13.346;2022-07-23T00:50:36;101250.00;;;23.90
15845;BMP180;50807;52.436;13.346;2022-07-23T00:51:08;101249.00;;;23.90
15845;BMP180;50807;52.436;13.346;2022-07-23T00:51:39;101243.00;;;23.90
15845;BMP180;50807;52.436;13.346;2022-07-23T00:52:11;101246.00;;;23.90
15845;BMP180;50807;52.436;13.346;2022-07-23T00:52:42;101238.00;;;23.90
15845;BMP180;50807;52.436;13.346;2022-07-23T00:53:14;101237.00;;;23.90
15845;BMP180;50807;52.436;13.346;2022-07-23T00:53:47;101234.00;;;23.90
15845;BMP180;50807;52.436;13.346;2022-07-23T00:54:19;101243.00;;;23.90
15845;BMP180;50807;52.436;13.346;2022-07-23T00:54:50;101239.00;;;23.90
15845;BMP180;50807;52.436;13.346;2022-07-23T00:55:21;101242.00;;;23.90
15845;BMP180;50807;52.436;13.346;2022-07-23T00:55:53;101243.00;;;23.90
15845;BMP180;50807;52.436;13.346;2022-07-23T00:56:24;101246.00;;;23.90
15845;BMP180;50807;52.436;13.346;2022-07-23T00:56:55;101243.00;;;23.90
15845;BMP180;50807;52.436;13.346;2022-07-23T00:57:27;101250.00;;;23.90
15845;BMP180;50807;52.436;13.346;2022-07-23T00:57:58;101257.00;;;23.90
15845;BMP180;50807;52.436;13.346;2022-07-23T00:58:29;101245.00;;;23.90
15845;BMP180;50807;52.436;13.346;2022-07-23T00:59:02;101249.00;;;23.90
15845;BMP180;50807;52.436;13.346;2022-07-23T00:59:33;101252.00;;;23.90
15845;BMP180;50807;52.436;13.346;2022-07-23T01:00:07;101252.00;;;23.90
15845;BMP180;50807;52.436;13.346;2022-07-23T01:00:39;101258.00;;;23.90
15845;BMP180;50807;52.436;13.346;2022-07-23T01:01:11;101253.00;;;23.90
15845;BMP180;50807;52.436;13.346;2022-07-23T01:01:42;101253.00;;;23.90
15845;BMP180;50807;52.436;13.346;2022-07-23T01:02:15;101250.00;;;23.90
15845;BMP180;50807;52.436;13.346;2022-07-23T01:02:46;101261.00;;;23.90
15845;BMP180;50807;52.436;13.346;2022-07-23T01:03:17;101253.00;;;23.90
15845;BMP180;50807;52.436;13.346;2022-07-23T01:03:49;101255.00;;;23.90
15845;BMP180;50807;52.436;13.346;2022-07-23T01:04:20;101254.00;;;23.90
15845;BMP180;50807;52.436;13.346;2022-07-23T01:04:51;101254.00;;;23.90
15845;BMP180;50807;52.436;13.346;2022-07-23T01:05:22;101251.00;;;23.90
15845;BMP180;50807;52.436;13.346;2022-07-23T01:05:54;101254.00;;;23.90
15845;BMP180;50807;52.436;13.346;2022-07-23T01:06:26;101259.00;;;23.90
15845;BMP180;50807;52.436;13.346;2022-07-23T01:06:57;101249.00;;;23.90
15845;BMP180;50807;52.436;13.346;2022-07-23T01:07:30;101259.00;;;23.90
15845;BMP180;50807;52.436;13.346;2022-07-23T01:08:01;101270.00;;;23.90
15845;BMP180;50807;52.436;13.346;2022-07-23T01:08:31;101264.00;;;23.90
15845;BMP180;50807;52.436;13.346;2022-07-23T01:09:05;101257.00;;;23.90
15845;BMP180;50807;52.436;13.346;2022-07-23T01:09:37;101261.00;;;23.90
15845;BMP180;50807;52.436;13.346;2022-07-23T01:10:08;101260.00;;;23.90
15845;BMP180;50807;52.436;13.346;2022-07-23T01:10:54;101258.00;;;23.80
15845;BMP180;50807;52.436;13.346;2022-07-23T01:11:27;101260.00;;;23.80
15845;BMP180;50807;52.436;13.346;2022-07-23T01:11:59;101266.00;;;23.80
15845;BMP180;50807;52.436;13.346;2022-07-23T01:12:30;101255.00;;;23.80
15845;BMP180;50807;52.436;13.346;2022-07-23T01:13:05;101256.00;;;23.80
15845;BMP180;50807;52.436;13.346;2022-07-23T01:13:35;101257.00;;;23.80
15845;BMP180;50807;52.436;13.346;2022-07-23T01:14:12;101256.00;;;23.80
15845;BMP180;50807;52.436;13.346;2022-07-23T01:14:44;101248.00;;;23.80
15845;BMP180;50807;52.436;13.346;2022-07-23T01:15:15;101251.00;;;23.80
15845;BMP180;50807;52.436;13.346;2022-07-23T01:15:46;101257.00;;;23.80
15845;BMP180;50807;52.436;13.346;2022-07-23T01:16:18;101249.00;;;23.80
15845;BMP180;50807;52.436;13.346;2022-07-23T01:16:49;101259.00;;;23.80
15845;BMP180;50807;52.436;13.346;2022-07-23T01:17:20;101251.00;;;23.90
15845;BMP180;50807;52.436;13.346;2022-07-23T01:17:51;101254.00;;;23.80
15845;BMP180;50807;52.436;13.346;2022-07-23T01:18:23;101251.00;;;23.90
15845;BMP180;50807;52.436;13.346;2022-07-23T01:18:53;101256.00;;;23.80
15845;BMP180;50807;52.436;13.346;2022-07-23T01:19:24;101246.00;;;23.90
15845;BMP180;50807;52.436;13.346;2022-07-23T01:19:56;101246.00;;;23.80
15845;BMP180;50807;52.436;13.346;2022-07-23T01:20:27;101254.00;;;23.80
15845;BMP180;50807;52.436;13.346;2022-07-23T01:20:57;101249.00;;;23.80
15845;BMP180;50807;52.436;13.346;2022-07-23T01:21:31;101244.00;;;23.80
15845;BMP180;50807;52.436;13.346;2022-07-23T01:22:03;101248.00;;;23.70
15845;BMP180;50807;52.436;13.346;2022-07-23T01:22:35;101238.00;;;23.80
15845;BMP180;50807;52.436;13.346;2022-07-23T01:23:07;101245.00;;;23.70
15845;BMP180;50807;52.436;13.346;2022-07-23T01:23:38;101241.00;;;23.80
15845;BMP180;50807;52.436;13.346;2022-07-23T01:24:10;101236.00;;;23.70
15845;BMP180;50807;52.436;13.346;2022-07-23T01:24:41;101237.00;;;23.70
15845;BMP180;50807;52.436;13.346;2022-07-23T01:25:13;101234.00;;;23.70
15845;BMP180;50807;52.436;13.346;2022-07-23T01:25:48;101242.00;;;23.70
15845;BMP180;50807;52.436;13.346;2022-07-23T01:26:20;101236.00;;;23.70
15845;BMP180;50807;52.436;13.346;2022-07-23T01:26:51;101238.00;;;23.70
15845;BMP180;50807;52.436;13.346;2022-07-23T01:27:21;101232.00;;;23.70
15845;BMP180;50807;52.436;13.346;2022-07-23T01:27:53;101235.00;;;23.70
15845;BMP180;50807;52.436;13.346;2022-07-23T01:28:25;101236.00;;;23.70
15845;BMP180;50807;52.436;13.346;2022-07-23T01:28:56;101233.00;;;23.70
15845;BMP180;50807;52.436;13.346;2022-07-23T01:29:26;101235.00;;;23.70
15845;BMP180;50807;52.436;13.346;2022-07-23T01:30:00;101234.00;;;23.70
15845;BMP180;50807;52.436;13.346;2022-07-23T01:30:31;101234.00;;;23.70
15845;BMP180;50807;52.436;13.346;2022-07-23T01:31:02;101234.00;;;23.70
15845;BMP180;50807;52.436;13.346;2022-07-23T01:31:34;101226.00;;;23.60
15845;BMP180;50807;52.436;13.346;2022-07-23T01:32:05;101227.00;;;23.60
15845;BMP180;50807;52.436;13.346;2022-07-23T01:32:36;101231.00;;;23.70
15845;BMP180;50807;52.436;13.346;2022-07-23T01:33:08;101228.00;;;23.60
15845;BMP180;50807;52.436;13.346;2022-07-23T01:33:39;101230.00;;;23.70
15845;BMP180;50807;52.436;13.346;2022-07-23T01:34:10;101233.00;;;23.60
15845;BMP180;50807;52.436;13.346;2022-07-23T01:34:42;101223.00;;;23.60
15845;BMP180;50807;52.436;13.346;2022-07-23T01:35:12;101224.00;;;23.60
15845;BMP180;50807;52.436;13.346;2022-07-23T01:35:43;101227.00;;;23.60
15845;BMP180;50807;52.436;13.346;2022-07-23T01:36:15;101230.00;;;23.60
15845;BMP180;50807;52.436;13.346;2022-07-23T01:36:46;101227.00;;;23.60
15845;BMP180;50807;52.436;13.346;2022-07-23T01:37:17;101226.00;;;23.60
15845;BMP180;50807;52.436;13.346;2022-07-23T01:37:50;101227.00;;;23.60
15845;BMP180;50807;52.436;13.346;2022-07-23T01:38:21;101227.00;;;23.50
15845;BMP180;50807;52.436;13.346;2022-07-23T01:38:52;101217.00;;;23.60
15845;BMP180;50807;52.436;13.346;2022-07-23T01:39:24;101222.00;;;23.50
15845;BMP180;50807;52.436;13.346;2022-07-23T01:39:54;101219.00;;;23.50
15845;BMP180;50807;52.436;13.346;2022-07-23T01:40:25;101220.00;;;23.50
15845;BMP180;50807;52.436;13.346;2022-07-23T01:40:57;101216.00;;;23.50
15845;BMP180;50807;52.436;13.346;2022-07-23T01:41:28;101225.00;;;23.50
15845;BMP180;50807;52.436;13.346;2022-07-23T01:41:58;101223.00;;;23.50
15845;BMP180;50807;52.436;13.346;2022-07-23T01:42:30;101225.00;;;23.50
15845;BMP180;50807;52.436;13.346;2022-07-23T01:43:01;101229.00;;;23.50
15845;BMP180;50807;52.436;13.346;2022-07-23T01:43:33;101225.00;;;23.50
15845;BMP180;50807;52.436;13.346;2022-07-23T01:44:04;101224.00;;;23.50
15845;BMP180;50807;52.436;13.346;2022-07-23T01:44:34;101225.00;;;23.50
15845;BMP180;50807;52.436;13.346;2022-07-23T01:45:07;101229.00;;;23.50
15845;BMP180;50807;52.436;13.346;2022-07-23T01:45:38;101230.00;;;23.50
15845;BMP180;50807;52.436;13.346;2022-07-23T01:46:10;101223.00;;;23.40
15845;BMP180;50807;52.436;13.346;2022-07-23T01:46:41;101229.00;;;23.50
15845;BMP180;50807;52.436;13.346;2022-07-23T01:47:12;101218.00;;;23.40
15845;BMP180;50807;52.436;13.346;2022-07-23T01:47:43;101219.00;;;23.40
15845;BMP180;50807;52.436;13.346;2022-07-23T01:48:14;101218.00;;;23.40
15845;BMP180;50807;52.436;13.346;2022-07-23T01:48:47;101213.00;;;23.40
15845;BMP180;50807;52.436;13.346;2022-07-23T01:49:17;101221.00;;;23.50
15845;BMP180;50807;52.436;13.346;2022-07-23T01:49:49;101221.00;;;23.50
15845;BMP180;50807;52.436;13.346;2022-07-23T01:50:20;101215.00;;;23.50
15845;BMP180;50807;52.436;13.346;2022-07-23T01:50:51;101216.00;;;23.40
15845;BMP180;50807;52.436;13.346;2022-07-23T01:51:22;101219.00;;;23.40
15845;BMP180;50807;52.436;13.346;2022-07-23T01:51:53;101219.00;;;23.40
15845;BMP180;50807;52.436;13.346;2022-07-23T01:52:30;101220.00;;;23.40
15845;BMP180;50807;52.436;13.346;2022-07-23T01:53:03;101218.00;;;23.40
15845;BMP180;50807;52.436;13.346;2022-07-23T01:53:34;101217.00;;;23.40
15845;BMP180;50807;52.436;13.346;2022-07-23T01:54:05;101217.00;;;23.40
15845;BMP180;50807;52.436;13.346;2022-07-23T01:54:38;101205.00;;;23.40
15845;BMP180;50807;52.436;13.346;2022-07-23T01:55:09;101205.00;;;23.40
15845;BMP180;50807;52.436;13.346;2022-07-23T01:55:40;101206.00;;;23.40
15845;BMP180;50807;52.436;13.346;2022-07-23T01:56:11;101207.00;;;23.40
15845;BMP180;50807;52.436;13.346;2022-07-23T01:56:42;101219.00;;;23.40
15845;BMP180;50807;52.436;13.346;2022-07-23T01:57:13;101210.00;;;23.40
15845;BMP180;50807;52.436;13.346;2022-07-23T01:57:44;101208.00;;;23.40
15845;BMP180;50807;52.436;13.346;2022-07-23T01:58:15;101209.00;;;23.40
15845;BMP180;50807;52.436;13.346;2022-07-23T01:58:46;101221.00;;;23.40
15845;BMP180;50807;52.436;13.346;2022-07-23T01:59:17;101224.00;;;23.40
15845;BMP180;50807;52.436;13.346;2022-07-23T01:59:49;101224.00;;;23.40
15845;BMP180;50807;52.436;13.346;2022-07-23T02:00:20;101222.00;;;23.40
15845;BMP180;50807;52.436;13.346;2022-07-23T02:00:50;101218.00;;;23.40
15845;BMP180;50807;52.436;13.346;2022-07-23T02:01:22;101219.00;;;23.40
15845;BMP180;50807;52.436;13.346;2022-07-23T02:01:53;101218.00;;;23.40
15845;BMP180;50807;52.436;13.346;2022-07-23T02:02:24;101219.00;;;23.40
15845;BMP180;50807;52.436;13.346;2022-07-23T02:02:55;101213.00;;;23.40
15845;BMP180;50807;52.436;13.346;2022-07-23T02:03:29;101219.00;;;23.40
15845;BMP180;50807;52.436;13.346;2022-07-23T02:03:59;101212.00;;;23.40
15845;BMP180;50807;52.436;13.346;2022-07-23T02:04:30;101223.00;;;23.40
15845;BMP180;50807;52.436;13.346;2022-07-23T02:05:01;101220.00;;;23.40
15845;BMP180;50807;52.436;13.346;2022-07-23T02:05:33;101215.00;;;23.40
15845;BMP180;50807;52.436;13.346;2022-07-23T02:06:04;101219.00;;;23.40
15845;BMP180;50807;52.436;13.346;2022-07-23T02:06:34;101211.00;;;23.40
15845;BMP180;50807;52.436;13.346;2022-07-23T02:07:05;101216.00;;;23.40
15845;BMP180;50807;52.436;13.346;2022-07-23T02:07:37;101215.00;;;23.40
15845;BMP180;50807;52.436;13.346;2022-07-23T02:08:09;101207.00;;;23.40
15845;BMP180;50807;52.436;13.346;2022-07-23T02:08:40;101207.00;;;23.40
15845;BMP180;50807;52.436;13.346;2022-07-23T02:09:12;101207.00;;;23.40
15845;BMP180;50807;52.436;13.346;2022-07-23T02:09:42;101203.00;;;23.40
15845;BMP180;50807;52.436;13.346;2022-07-23T02:10:13;101205.00;;;23.40
15845;BMP180;50807;52.436;13.346;2022-07-23T02:10:45;101208.00;;;23.40
15845;BMP180;50807;52.436;13.346;2022-07-23T02:11:16;101207.00;;;23.40
15845;BMP180;50807;52.436;13.346;2022-07-23T02:11:47;101208.00;;;23.40
15845;BMP180;50807;52.436;13.346;2022-07-23T02:12:18;101210.00;;;23.40
15845;BMP180;50807;52.436;13.346;2022-07-23T02:12:50;101208.00;;;23.40
15845;BMP180;50807;52.436;13.346;2022-07-23T02:13:20;101212.00;;;23.40
15845;BMP180;50807;52.436;13.346;2022-07-23T02:13:51;101204.00;;;23.40
15845;BMP180;50807;52.436;13.346;2022-07-23T02:14:23;101207.00;;;23.40
15845;BMP180;50807;52.436;13.346;2022-07-23T02:14:53;101211.00;;;23.40
15845;BMP180;50807;52.436;13.346;2022-07-23T02:15:25;101211.00;;;23.40
15845;BMP180;50807;52.436;13.346;2022-07-23T02:15:56;101209.00;;;23.40
15845;BMP180;50807;52.436;13.346;2022-07-23T02:16:27;101209.00;;;23.40
15845;BMP180;50807;52.436;13.346;2022-07-23T02:16:58;101213.00;;;23.40
15845;BMP180;50807;52.436;13.346;2022-07-23T02:17:30;101206.00;;;23.40
15845;BMP180;50807;52.436;13.346;2022-07-23T02:18:00;101205.00;;;23.40
15845;BMP180;50807;52.436;13.346;2022-07-23T02:18:31;101201.00;;;23.40
15845;BMP180;50807;52.436;13.346;2022-07-23T02:19:04;101202.00;;;23.40
15845;BMP180;50807;52.436;13.346;2022-07-23T02:19:34;101209.00;;;23.40
15845;BMP180;50807;52.436;13.346;2022-07-23T02:20:08;101203.00;;;23.40
15845;BMP180;50807;52.436;13.346;2022-07-23T02:20:41;101205.00;;;23.40
15845;BMP180;50807;52.436;13.346;2022-07-23T02:21:12;101211.00;;;23.40
15845;BMP180;50807;52.436;13.346;2022-07-23T02:21:43;101213.00;;;23.40
15845;BMP180;50807;52.436;13.346;2022-07-23T02:22:15;101206.00;;;23.40
15845;BMP180;50807;52.436;13.346;2022-07-23T02:22:46;101209.00;;;23.40
15845;BMP180;50807;52.436;13.346;2022-07-23T02:23:18;101208.00;;;23.40
15845;BMP180;50807;52.436;13.346;2022-07-23T02:23:49;101210.00;;;23.40
15845;BMP180;50807;52.436;13.346;2022-07-23T02:24:21;101209.00;;;23.40
15845;BMP180;50807;52.436;13.346;2022-07-23T02:24:52;101208.00;;;23.40
15845;BMP180;50807;52.436;13.346;2022-07-23T02:25:23;101207.00;;;23.40
15845;BMP180;50807;52.436;13.346;2022-07-23T02:25:54;101208.00;;;23.40
15845;BMP180;50807;52.436;13.346;2022-07-23T02:26:26;101202.00;;;23.40
15845;BMP180;50807;52.436;13.346;2022-07-23T02:26:56;101206.00;;;23.40
15845;BMP180;50807;52.436;13.346;2022-07-23T02:27:27;101213.00;;;23.40
15845;BMP180;50807;52.436;13.346;2022-07-23T02:27:58;101211.00;;;23.40
15845;BMP180;50807;52.436;13.346;2022-07-23T02:28:30;101207.00;;;23.40
15845;BMP180;50807;52.436;13.346;2022-07-23T02:29:02;101207.00;;;23.40
15845;BMP180;50807;52.436;13.346;2022-07-23T02:29:32;101206.00;;;23.40
15845;BMP180;50807;52.436;13.346;2022-07-23T02:30:06;101210.00;;;23.40
15845;BMP180;50807;52.436;13.346;2022-07-23T02:30:37;101208.00;;;23.40
15845;BMP180;50807;52.436;13.346;2022-07-23T02:31:08;101215.00;;;23.40
15845;BMP180;50807;52.436;13.346;2022-07-23T02:31:40;101217.00;;;23.40
15845;BMP180;50807;52.436;13.346;2022-07-23T02:32:11;101216.00;;;23.40
15845;BMP180;50807;52.436;13.346;2022-07-23T02:32:42;101216.00;;;23.40
15845;BMP180;50807;52.436;13.346;2022-07-23T02:33:13;101213.00;;;23.40
15845;BMP180;50807;52.436;13.346;2022-07-23T02:33:44;101207.00;;;23.40
15845;BMP180;50807;52.436;13.346;2022-07-23T02:34:15;101209.00;;;23.40
15845;BMP180;50807;52.436;13.346;2022-07-23T02:34:47;101209.00;;;23.40
15845;BMP180;50807;52.436;13.346;2022-07-23T02:35:18;101205.00;;;23.40
15845;BMP180;50807;52.436;13.346;2022-07-23T02:35:48;101204.00;;;23.40
15845;BMP180;50807;52.436;13.346;2022-07-23T02:36:19;101207.00;;;23.40
15845;BMP180;50807;52.436;13.346;2022-07-23T02:36:51;101211.00;;;23.40
15845;BMP180;50807;52.436;13.346;2022-07-23T02:37:22;101202.00;;;23.40
15845;BMP180;50807;52.436;13.346;2022-07-23T02:37:52;101212.00;;;23.40
15845;BMP180;50807;52.436;13.346;2022-07-23T02:38:26;101202.00;;;23.40
15845;BMP180;50807;52.436;13.346;2022-07-23T02:38:57;101204.00;;;23.40
15845;BMP180;50807;52.436;13.346;2022-07-23T02:39:27;101205.00;;;23.40
15845;BMP180;50807;52.436;13.346;2022-07-23T02:39:59;101207.00;;;23.40
15845;BMP180;50807;52.436;13.346;2022-07-23T02:40:30;101206.00;;;23.40
15845;BMP180;50807;52.436;13.346;2022-07-23T02:41:01;101208.00;;;23.40
15845;BMP180;50807;52.436;13.346;2022-07-23T02:41:32;101204.00;;;23.40
15845;BMP180;50807;52.436;13.346;2022-07-23T02:42:04;101213.00;;;23.40
15845;BMP180;50807;52.436;13.346;2022-07-23T02:42:34;101215.00;;;23.40
15845;BMP180;50807;52.436;13.346;2022-07-23T02:43:05;101207.00;;;23.40
15845;BMP180;50807;52.436;13.346;2022-07-23T02:43:37;101217.00;;;23.40
15845;BMP180;50807;52.436;13.346;2022-07-23T02:44:08;101212.00;;;23.40
15845;BMP180;50807;52.436;13.346;2022-07-23T02:44:38;101218.00;;;23.40
15845;BMP180;50807;52.436;13.346;2022-07-23T02:45:09;101216.00;;;23.40
15845;BMP180;50807;52.436;13.346;2022-07-23T02:45:41;101219.00;;;23.40
15845;BMP180;50807;52.436;13.346;2022-07-23T02:46:12;101217.00;;;23.30
15845;BMP180;50807;52.436;13.346;2022-07-23T02:46:43;101214.00;;;23.40
15845;BMP180;50807;52.436;13.346;2022-07-23T02:47:15;101223.00;;;23.40
15845;BMP180;50807;52.436;13.346;2022-07-23T02:47:45;101217.00;;;23.40
15845;BMP180;50807;52.436;13.346;2022-07-23T02:48:16;101218.00;;;23.40
15845;BMP180;50807;52.436;13.346;2022-07-23T02:48:48;101223.00;;;23.30
15845;BMP180;50807;52.436;13.346;2022-07-23T02:49:20;101220.00;;;23.30
15845;BMP180;50807;52.436;13.346;2022-07-23T02:49:50;101221.00;;;23.30
15845;BMP180;50807;52.436;13.346;2022-07-23T02:50:21;101213.00;;;23.40
15845;BMP180;50807;52.436;13.346;2022-07-23T02:50:53;101219.00;;;23.40
15845;BMP180;50807;52.436;13.346;2022-07-23T02:51:26;101212.00;;;23.30
15845;BMP180;50807;52.436;13.346;2022-07-23T02:51:57;101218.00;;;23.30
15845;BMP180;50807;52.436;13.346;2022-07-23T02:52:28;101219.00;;;23.30
15845;BMP180;50807;52.436;13.346;2022-07-23T02:53:00;101216.00;;;23.30
15845;BMP180;50807;52.436;13.346;2022-07-23T02:53:32;101210.00;;;23.30
15845;BMP180;50807;52.436;13.346;2022-07-23T02:54:03;101207.00;;;23.30
15845;BMP180;50807;52.436;13.346;2022-07-23T02:54:34;101218.00;;;23.30
15845;BMP180;50807;52.436;13.346;2022-07-23T02:55:06;101215.00;;;23.30
15845;BMP180;50807;52.436;13.346;2022-07-23T02:55:37;101215.00;;;23.30
15845;BMP180;50807;52.436;13.346;2022-07-23T02:56:09;101221.00;;;23.30
15845;BMP180;50807;52.436;13.346;2022-07-23T02:56:40;101224.00;;;23.30